Time;durP1;ratioP1;P1;durP2;ratioP2;P2;SDS_P1;SDS_P2;PMS_P1;PMS_P2;Temp;Humidity;BMP_temperature;BMP_pressure;BME280_temperature;BME280_humidity;BME280_pressure;Samples;Min_cycle;Max_cycle;Signal;HPM_P1;HPM_P2
2021/07/30 00:01:06;;;;;;;4.97;2.23;;;20.50;67.50;;;;;;10464399;28;20677;-29
2021/07/30 00:06:29;;;;;;;3.87;1.80;;;20.40;67.50;;;;;;10465354;28;20208;-29
2021/07/30 00:11:51;;;;;;;5.63;2.30;;;20.50;67.40;;;;;;10465135;28;20197;-31
2021/07/30 00:17:13;;;;;;;4.80;2.27;;;20.40;67.40;;;;;;10415627;22;20233;-23
2021/07/30 00:22:37;;;;;;;5.10;2.17;;;20.40;67.40;;;;;;10396173;28;20205;-22
2021/07/30 00:27:59;;;;;;;4.73;2.07;;;20.40;67.30;;;;;;10410028;28;20222;-23
2021/07/30 00:33:21;;;;;;;7.73;2.20;;;20.40;67.10;;;;;;10410844;28;20190;-22
2021/07/30 00:38:45;;;;;;;4.40;2.23;;;20.50;67.20;;;;;;10401551;28;20293;-23
2021/07/30 00:44:07;;;;;;;4.43;2.00;;;20.40;67.20;;;;;;10409731;28;20201;-22
2021/07/30 00:49:29;;;;;;;7.07;2.13;;;20.40;66.90;;;;;;10409872;28;20214;-22
2021/07/30 00:54:53;;;;;;;4.13;2.00;;;20.40;67.00;;;;;;10408248;28;20225;-23
2021/07/30 01:00:16;;;;;;;5.73;1.93;;;20.40;66.80;;;;;;10374741;28;20202;-22
2021/07/30 01:05:39;;;;;;;8.83;2.63;;;20.40;66.70;;;;;;10372440;28;20701;-23
2021/07/30 01:11:02;;;;;;;5.57;2.27;;;20.40;66.80;;;;;;10408251;28;20197;-22
2021/07/30 01:16:24;;;;;;;5.13;2.30;;;20.40;66.50;;;;;;10409060;28;20313;-23
2021/07/30 01:21:48;;;;;;;4.60;2.10;;;20.40;66.40;;;;;;10408130;28;20194;-23
2021/07/30 01:27:12;;;;;;;6.13;2.20;;;20.40;66.50;;;;;;10374792;28;20571;-23
2021/07/30 01:32:34;;;;;;;9.70;2.40;;;20.40;66.40;;;;;;10377841;28;20640;-23
2021/07/30 01:37:56;;;;;;;6.37;2.13;;;20.40;66.30;;;;;;10399609;28;20673;-22
2021/07/30 01:43:19;;;;;;;8.83;2.13;;;20.40;66.10;;;;;;10416993;28;20202;-23
2021/07/30 01:48:41;;;;;;;6.80;2.10;;;20.30;65.90;;;;;;10417375;28;20214;-23
2021/07/30 01:54:04;;;;;;;5.07;2.20;;;20.30;66.00;;;;;;10417417;28;20205;-23
2021/07/30 01:59:28;;;;;;;3.77;2.10;;;20.40;66.00;;;;;;10415771;28;20221;-24
2021/07/30 02:04:50;;;;;;;5.43;2.13;;;20.30;65.80;;;;;;10416775;28;20580;-22
2021/07/30 02:10:12;;;;;;;3.60;2.00;;;20.30;65.70;;;;;;10385644;28;20221;-23
2021/07/30 02:15:38;;;;;;;4.93;2.03;;;20.30;65.70;;;;;;10406935;28;20221;-22
2021/07/30 02:21:00;;;;;;;3.10;2.00;;;20.30;65.70;;;;;;10415246;28;20603;-22
2021/07/30 02:26:22;;;;;;;4.87;2.20;;;20.30;65.90;;;;;;10409829;28;20207;-23
2021/07/30 02:31:48;;;;;;;3.27;2.10;;;20.30;65.70;;;;;;10374083;28;20202;-23
2021/07/30 02:37:10;;;;;;;3.77;2.27;;;20.30;65.50;;;;;;10396856;28;20229;-25
2021/07/30 02:42:32;;;;;;;5.20;2.63;;;20.30;65.70;;;;;;10404187;28;20209;-24
2021/07/30 02:47:55;;;;;;;4.80;2.10;;;20.30;65.60;;;;;;10413508;28;20225;-22
2021/07/30 02:53:18;;;;;;;6.80;2.30;;;20.30;65.50;;;;;;10415275;28;20681;-23
2021/07/30 02:58:40;;;;;;;5.17;2.23;;;20.30;65.60;;;;;;10401647;28;20221;-22
2021/07/30 03:04:03;;;;;;;5.20;2.30;;;20.30;65.40;;;;;;10411015;28;20201;-23
2021/07/30 03:09:25;;;;;;;7.17;2.33;;;20.30;65.40;;;;;;10414265;28;20226;-22
2021/07/30 03:14:48;;;;;;;5.07;2.13;;;20.30;65.10;;;;;;10412331;28;20198;-22
2021/07/30 03:20:12;;;;;;;6.47;2.30;;;20.30;65.10;;;;;;10414195;28;20657;-22
2021/07/30 03:25:34;;;;;;;5.07;2.20;;;20.30;65.20;;;;;;10412878;28;20237;-22
2021/07/30 03:30:59;;;;;;;4.10;2.17;;;20.30;65.30;;;;;;10412954;28;20198;-22
2021/07/30 03:36:22;;;;;;;6.60;2.83;;;20.30;65.30;;;;;;10413216;28;20222;-24
2021/07/30 03:41:44;;;;;;;5.73;1.97;;;20.30;64.80;;;;;;10409641;28;20201;-22
2021/07/30 03:47:06;;;;;;;5.70;2.33;;;20.20;64.50;;;;;;10412310;28;20218;-22
2021/07/30 03:52:30;;;;;;;6.73;2.37;;;20.20;64.60;;;;;;10412267;28;20665;-23
2021/07/30 03:57:52;;;;;;;5.37;2.27;;;20.20;64.30;;;;;;10391422;28;20221;-22
2021/07/30 04:03:14;;;;;;;3.73;2.33;;;20.20;64.30;;;;;;10390995;28;20198;-22
2021/07/30 04:08:38;;;;;;;8.00;2.30;;;20.20;64.20;;;;;;10390697;28;20214;-23
2021/07/30 04:14:00;;;;;;;6.80;2.70;;;20.20;64.20;;;;;;10390993;28;20731;-22
2021/07/30 04:19:22;;;;;;;6.07;2.53;;;20.20;64.30;;;;;;10391300;28;20224;-24
2021/07/30 04:24:45;;;;;;;5.93;2.27;;;20.20;64.40;;;;;;10392056;28;20218;-22
2021/07/30 04:30:08;;;;;;;5.03;2.47;;;20.20;64.40;;;;;;10391934;28;20202;-22
2021/07/30 04:35:30;;;;;;;6.73;3.00;;;20.20;64.60;;;;;;10389984;28;20228;-23
2021/07/30 04:40:53;;;;;;;4.93;2.60;;;20.20;64.60;;;;;;10390524;28;20206;-23
2021/07/30 04:46:17;;;;;;;6.20;2.60;;;20.20;64.60;;;;;;10389853;28;20210;-25
2021/07/30 04:51:39;;;;;;;5.53;2.40;;;20.20;64.80;;;;;;10369522;28;20539;-23
2021/07/30 04:57:02;;;;;;;6.50;2.53;;;20.20;65.10;;;;;;10370550;28;20221;-23
2021/07/30 05:02:24;;;;;;;4.93;2.60;;;20.20;65.80;;;;;;10368766;28;20202;-24
2021/07/30 05:07:47;;;;;;;4.53;2.40;;;20.20;65.20;;;;;;10398805;28;20221;-22
2021/07/30 05:13:11;;;;;;;3.83;2.50;;;20.20;65.30;;;;;;10408574;28;20194;-23
2021/07/30 05:18:33;;;;;;;4.17;2.30;;;20.20;65.50;;;;;;10386142;28;20218;-23
2021/07/30 05:23:55;;;;;;;4.83;2.40;;;20.20;65.80;;;;;;10395375;28;20280;-23
2021/07/30 05:29:18;;;;;;;4.70;2.10;;;20.20;66.20;;;;;;10400101;28;20224;-22
2021/07/30 05:34:40;;;;;;;5.77;2.40;;;20.30;66.60;;;;;;10409412;28;20198;-22
2021/07/30 05:40:03;;;;;;;3.53;2.40;;;20.30;66.90;;;;;;10379127;28;20217;-24
2021/07/30 05:45:27;;;;;;;8.33;3.30;;;20.20;66.80;;;;;;10369072;28;20218;-23
2021/07/30 05:50:49;;;;;;;6.77;3.10;;;20.20;64.70;;;;;;10369103;28;20670;-23
2021/07/30 05:56:11;;;;;;;6.17;2.70;;;20.10;64.40;;;;;;10390146;28;20233;-24
2021/07/30 06:01:34;;;;;;;8.03;3.20;;;20.20;65.00;;;;;;10369641;28;20205;-23
2021/07/30 06:06:56;;;;;;;7.13;3.07;;;20.20;65.70;;;;;;10408884;28;20703;-22
2021/07/30 06:12:19;;;;;;;8.53;3.13;;;20.20;65.10;;;;;;10376687;28;20205;-22
2021/07/30 06:17:43;;;;;;;7.70;3.00;;;20.20;64.70;;;;;;10521833;23;20624;-35
2021/07/30 06:23:05;;;;;;;8.77;3.30;;;20.20;65.30;;;;;;10430689;28;20197;-32
2021/07/30 06:28:27;;;;;;;7.07;3.10;;;20.20;65.20;;;;;;10415998;28;20210;-36
2021/07/30 06:33:51;;;;;;;6.43;2.80;;;20.20;65.10;;;;;;10475842;28;20205;-36
2021/07/30 06:39:13;;;;;;;4.77;2.97;;;20.20;65.00;;;;;;10457420;28;20221;-33
2021/07/30 06:44:35;;;;;;;8.17;3.47;;;20.20;65.30;;;;;;10451041;28;20713;-35
2021/07/30 06:49:58;;;;;;;8.13;3.87;;;20.20;65.60;;;;;;10445692;28;20217;-36
2021/07/30 06:55:21;;;;;;;7.97;3.20;;;20.20;64.40;;;;;;10448926;28;20704;-36
2021/07/30 07:00:43;;;;;;;6.73;3.47;;;20.20;64.50;;;;;;10441215;28;20197;-37
2021/07/30 07:06:07;;;;;;;7.37;3.47;;;20.20;64.90;;;;;;10443053;28;20221;-33
2021/07/30 07:11:29;;;;;;;7.67;3.27;;;20.20;65.10;;;;;;10454218;28;20212;-35
2021/07/30 07:16:51;;;;;;;9.67;3.53;;;20.30;65.80;;;;;;10449755;28;20217;-33
2021/07/30 07:22:14;;;;;;;8.57;3.33;;;20.30;64.90;;;;;;10448712;28;20615;-33
2021/07/30 07:27:37;;;;;;;9.10;3.07;;;20.40;65.50;;;;;;10449384;28;20232;-38
2021/07/30 07:32:59;;;;;;;8.97;2.90;;;20.40;66.20;;;;;;10448853;28;20192;-35
2021/07/30 07:38:23;;;;;;;5.13;2.73;;;20.40;66.20;;;;;;10450101;28;20221;-36
2021/07/30 07:43:45;;;;;;;6.37;3.13;;;20.40;66.50;;;;;;10449939;28;20201;-38
2021/07/30 07:49:07;;;;;;;4.70;2.83;;;20.50;66.60;;;;;;10448038;28;20213;-33
2021/07/30 07:54:30;;;;;;;3.90;2.83;;;20.50;66.60;;;;;;10451429;28;20603;-35
2021/07/30 07:59:52;;;;;;;5.23;2.83;;;20.50;66.30;;;;;;10448218;28;20233;-36
2021/07/30 08:05:14;;;;;;;4.73;2.47;;;20.50;66.60;;;;;;10448132;28;20695;-36
2021/07/30 08:10:38;;;;;;;7.10;3.23;;;20.50;66.10;;;;;;10447009;28;20200;-36
2021/07/30 08:16:00;;;;;;;6.07;3.00;;;20.50;64.90;;;;;;10487385;28;20235;-33
2021/07/30 08:21:22;;;;;;;7.90;2.83;;;20.50;65.10;;;;;;10447841;28;20212;-36
2021/07/30 08:26:45;;;;;;;4.73;2.73;;;20.50;65.40;;;;;;10447868;28;20225;-34
2021/07/30 08:32:09;;;;;;;6.83;3.13;;;20.60;66.00;;;;;;10446808;28;20197;-35
2021/07/30 08:37:31;;;;;;;8.03;2.70;;;20.60;64.70;;;;;;10441635;28;20220;-36
2021/07/30 08:42:54;;;;;;;4.90;2.93;;;20.60;64.10;;;;;;10456663;28;20195;-34
2021/07/30 08:48:17;;;;;;;3.70;2.37;;;20.60;64.20;;;;;;10449045;28;20691;-35
2021/07/30 08:53:40;;;;;;;4.87;2.40;;;20.60;64.50;;;;;;10447816;28;20205;-37
2021/07/30 08:59:04;;;;;;;3.53;2.40;;;20.60;64.70;;;;;;10479014;28;20598;-35
2021/07/30 09:04:27;;;;;;;38.93;4.07;;;20.70;65.00;;;;;;10449150;28;20588;-37
2021/07/30 09:09:53;;;;;;;67.37;5.53;;;20.70;64.70;;;;;;10448533;28;20608;-35
2021/07/30 09:15:23;;;;;;;82.27;8.43;;;20.70;64.90;;;;;;10453580;28;20200;-33
2021/07/30 09:20:45;;;;;;;85.43;7.50;;;20.60;65.00;;;;;;10461453;28;20216;-36
2021/07/30 09:26:07;;;;;;;40.93;5.77;;;20.60;65.30;;;;;;10445036;28;20604;-36
2021/07/30 09:31:38;;;;;;;33.67;4.50;;;20.80;65.40;;;;;;10442816;28;20197;-37
2021/07/30 09:37:02;;;;;;;24.27;4.30;;;20.80;65.50;;;;;;10450734;28;20707;-37
2021/07/30 09:42:30;;;;;;;11.07;3.20;;;20.80;65.20;;;;;;10406717;28;20216;-33
2021/07/30 09:47:54;;;;;;;21.77;4.73;;;20.80;64.80;;;;;;10443748;28;20216;-38
2021/07/30 09:53:17;;;;;;;10.67;2.63;;;20.70;64.90;;;;;;10455024;28;20193;-33
2021/07/30 09:58:40;;;;;;;5.07;2.40;;;20.70;65.00;;;;;;10453193;28;20217;-34
2021/07/30 10:04:05;;;;;;;8.80;2.93;;;20.70;65.50;;;;;;10454509;28;20197;-33
2021/07/30 10:09:27;;;;;;;6.87;2.60;;;20.70;65.70;;;;;;10455650;28;20217;-36
2021/07/30 10:14:50;;;;;;;8.83;2.87;;;20.60;65.50;;;;;;10452367;28;20200;-34
2021/07/30 10:20:15;;;;;;;5.87;2.47;;;20.70;65.10;;;;;;10452129;28;20217;-36
2021/07/30 10:25:38;;;;;;;5.20;2.37;;;20.70;65.30;;;;;;10454070;28;20220;-36
2021/07/30 10:31:02;;;;;;;5.37;2.33;;;20.70;65.40;;;;;;10492959;28;20207;-35
2021/07/30 10:36:38;;;;;;;4.17;2.50;;;20.60;65.50;;;;;;10469809;28;20516;-33
2021/07/30 10:42:11;;;;;;;4.57;2.00;;;20.60;65.90;;;;;;10456893;28;20205;-36
2021/07/30 10:47:33;;;;;;;6.00;2.33;;;20.70;66.10;;;;;;10466302;28;20357;-39
2021/07/30 10:52:57;;;;;;;3.63;1.90;;;20.60;66.20;;;;;;10464967;28;20212;-38
2021/07/30 10:58:19;;;;;;;5.17;2.27;;;20.60;66.20;;;;;;10455687;28;20704;-35
2021/07/30 11:04:03;;;;;;;6.00;2.50;;;20.70;66.60;;;;;;10455056;28;20208;-35
2021/07/30 11:09:39;;;;;;;3.97;2.33;;;20.60;66.60;;;;;;10414099;28;20206;-36
2021/07/30 11:15:08;;;;;;;5.13;2.53;;;20.70;66.70;;;;;;10446675;28;20221;-37
2021/07/30 11:20:34;;;;;;;4.33;2.40;;;20.60;66.80;;;;;;10447538;28;20205;-36
2021/07/30 11:26:05;;;;;;;5.13;2.50;;;20.70;67.10;;;;;;10453820;28;20266;-34
2021/07/30 11:31:27;;;;;;;7.33;2.77;;;20.70;67.10;;;;;;10454375;28;20200;-33
2021/07/30 11:36:51;;;;;;;5.70;2.40;;;20.60;67.10;;;;;;10454109;28;20221;-35
2021/07/30 11:42:15;;;;;;;17.73;2.80;;;20.60;67.50;;;;;;10455067;28;20197;-36
2021/07/30 11:47:39;;;;;;;8.97;2.60;;;20.70;67.30;;;;;;10462607;28;20592;-33
2021/07/30 11:53:05;;;;;;;7.67;3.20;;;20.60;67.40;;;;;;10485892;28;20203;-39
2021/07/30 11:58:28;;;;;;;6.83;2.40;;;20.70;67.00;;;;;;10439859;28;20217;-37
2021/07/30 12:04:06;;;;;;;11.90;2.87;;;20.60;67.10;;;;;;10453452;28;20577;-33
2021/07/30 12:09:32;;;;;;;7.37;2.80;;;20.70;67.20;;;;;;10467199;28;20216;-33
2021/07/30 12:14:56;;;;;;;13.03;2.80;;;20.70;67.40;;;;;;10455855;28;20197;-38
2021/07/30 12:20:18;;;;;;;8.33;2.83;;;20.70;67.80;;;;;;10428327;22;20228;-21
2021/07/30 12:25:43;;;;;;;42.23;4.47;;;20.70;68.20;;;;;;10408245;28;20201;-21
2021/07/30 12:31:13;;;;;;;19.80;3.67;;;20.70;67.10;;;;;;10331934;28;20614;-22
2021/07/30 12:36:35;;;;;;;26.93;3.90;;;20.70;66.60;;;;;;10353988;28;20229;-24
2021/07/30 12:41:57;;;;;;;12.33;2.90;;;20.70;66.60;;;;;;10369440;28;20206;-24
2021/07/30 12:47:22;;;;;;;7.57;2.33;;;20.70;66.70;;;;;;10398825;28;20225;-25
2021/07/30 12:53:02;;;;;;;10.17;2.67;;;20.70;67.00;;;;;;10404163;28;20677;-24
2021/07/30 12:58:25;;;;;;;4.50;2.27;;;20.80;67.20;;;;;;10367350;28;20238;-24
2021/07/30 13:03:55;;;;;;;6.87;2.37;;;20.70;67.90;;;;;;10365665;28;20605;-25
2021/07/30 13:09:17;;;;;;;7.63;2.53;;;20.70;68.10;;;;;;10359758;28;20341;-24
2021/07/30 13:14:39;;;;;;;10.03;2.90;;;20.70;68.10;;;;;;10362902;28;20218;-23
2021/07/30 13:20:02;;;;;;;5.67;2.30;;;20.80;68.20;;;;;;10372083;28;20218;-25
2021/07/30 13:25:24;;;;;;;5.47;2.60;;;20.70;68.10;;;;;;10351140;28;20213;-25
2021/07/30 13:30:47;;;;;;;7.53;2.93;;;20.70;68.70;;;;;;10372593;28;20206;-25
2021/07/30 13:36:11;;;;;;;7.53;2.50;;;20.70;69.00;;;;;;10373509;28;20202;-25
2021/07/30 13:41:33;;;;;;;6.80;2.90;;;20.70;69.20;;;;;;10399311;28;20601;-24
2021/07/30 13:46:55;;;;;;;5.47;2.60;;;20.70;69.20;;;;;;10402668;28;20592;-24
2021/07/30 13:52:18;;;;;;;4.30;2.37;;;20.70;69.20;;;;;;10412215;28;20775;-24
2021/07/30 13:57:40;;;;;;;5.47;2.57;;;20.70;69.00;;;;;;10374776;28;20222;-23
2021/07/30 14:03:03;;;;;;;7.40;2.67;;;20.70;68.90;;;;;;10375271;28;20621;-25
2021/07/30 14:08:26;;;;;;;4.40;2.30;;;20.70;68.90;;;;;;10360026;28;20251;-25
2021/07/30 14:13:48;;;;;;;4.87;2.50;;;20.70;69.00;;;;;;10375894;28;20673;-24
2021/07/30 14:19:10;;;;;;;5.50;2.43;;;20.60;69.10;;;;;;10375785;28;20698;-25
2021/07/30 14:24:34;;;;;;;4.67;2.13;;;20.60;69.10;;;;;;10375228;28;20202;-24
2021/07/30 14:29:56;;;;;;;4.20;2.50;;;20.70;69.40;;;;;;10374192;28;20226;-24
2021/07/30 14:35:18;;;;;;;6.57;2.10;;;20.70;69.30;;;;;;10373640;28;20203;-24
2021/07/30 14:40:41;;;;;;;3.77;2.23;;;20.60;69.30;;;;;;10373753;28;20218;-24
2021/07/30 14:46:03;;;;;;;3.97;2.33;;;20.70;69.50;;;;;;10393133;28;20198;-25
2021/07/30 14:51:25;;;;;;;4.13;2.00;;;20.70;69.60;;;;;;10379344;28;20210;-25
2021/07/30 14:56:53;;;;;;;4.50;2.27;;;20.60;69.40;;;;;;10370371;28;20221;-22
2021/07/30 15:02:15;;;;;;;5.07;2.10;;;20.70;69.40;;;;;;10373477;28;20768;-22
2021/07/30 15:07:37;;;;;;;2.80;1.80;;;20.60;69.30;;;;;;10373627;28;20218;-22
2021/07/30 15:13:00;;;;;;;2.57;1.80;;;20.70;69.40;;;;;;10369795;28;20198;-22
2021/07/30 15:18:22;;;;;;;4.57;1.90;;;20.60;69.40;;;;;;10369204;28;20225;-21
2021/07/30 15:23:45;;;;;;;4.53;2.20;;;20.60;69.50;;;;;;10371381;28;20194;-21
2021/07/30 15:29:09;;;;;;;3.00;1.90;;;20.60;69.60;;;;;;10372656;28;20219;-22
2021/07/30 15:34:31;;;;;;;3.27;2.03;;;20.60;69.60;;;;;;10372962;28;20195;-20
2021/07/30 15:39:53;;;;;;;2.90;2.13;;;20.60;69.70;;;;;;10370810;28;20337;-22
2021/07/30 15:45:16;;;;;;;4.17;1.87;;;20.60;69.70;;;;;;10383392;28;20206;-21
2021/07/30 15:50:38;;;;;;;3.20;1.80;;;20.60;69.70;;;;;;10387724;28;20248;-21
2021/07/30 15:56:01;;;;;;;3.07;1.70;;;20.60;69.60;;;;;;10363537;28;20583;-21
2021/07/30 16:01:26;;;;;;;3.90;1.90;;;20.70;69.70;;;;;;10372174;28;20330;-21
2021/07/30 16:06:49;;;;;;;3.60;1.60;;;20.60;69.70;;;;;;10371580;28;20693;-21
2021/07/30 16:12:11;;;;;;;3.70;2.03;;;20.60;69.90;;;;;;10370699;28;20806;-21
2021/07/30 16:17:35;;;;;;;4.57;1.97;;;20.60;69.70;;;;;;10369536;28;20228;-21
2021/07/30 16:22:57;;;;;;;1.60;1.43;;;20.60;69.80;;;;;;10370579;28;20555;-22
2021/07/30 16:28:21;;;;;;;3.13;1.90;;;20.60;69.90;;;;;;10369082;28;20233;-22
2021/07/30 16:33:46;;;;;;;2.33;1.63;;;20.60;69.90;;;;;;10370473;28;20891;-21
2021/07/30 16:39:08;;;;;;;3.30;1.80;;;20.60;69.90;;;;;;10369446;28;20755;-21
2021/07/30 16:44:31;;;;;;;1.67;1.57;;;20.70;70.10;;;;;;10376301;28;20573;-25
2021/07/30 16:49:55;;;;;;;2.27;1.73;;;20.70;70.30;;;;;;10389245;28;20217;-24
2021/07/30 16:55:17;;;;;;;2.60;1.57;;;20.60;70.20;;;;;;10351164;28;20190;-24
2021/07/30 17:00:39;;;;;;;4.50;1.83;;;20.60;70.20;;;;;;10369305;28;20227;-23
2021/07/30 17:06:03;;;;;;;2.33;1.60;;;20.60;70.30;;;;;;10369542;28;20198;-23
2021/07/30 17:11:25;;;;;;;2.67;1.50;;;20.70;70.20;;;;;;10368829;28;20205;-21
2021/07/30 17:16:49;;;;;;;5.23;1.83;;;20.70;69.80;;;;;;10364515;28;20230;-23
2021/07/30 17:22:12;;;;;;;4.30;1.80;;;20.60;70.40;;;;;;10367645;28;20214;-21
2021/07/30 17:27:35;;;;;;;1.83;1.70;;;20.70;70.00;;;;;;10367195;28;20221;-21
2021/07/30 17:32:57;;;;;;;2.63;1.50;;;20.60;69.70;;;;;;10364874;28;20237;-22
2021/07/30 17:38:20;;;;;;;3.30;2.00;;;20.60;69.90;;;;;;10345844;28;20231;-21
2021/07/30 17:43:42;;;;;;;3.87;1.60;;;20.60;69.90;;;;;;10329070;28;20195;-22
2021/07/30 17:49:04;;;;;;;2.10;1.43;;;20.60;70.10;;;;;;10395728;28;20219;-21
2021/07/30 17:54:28;;;;;;;2.87;1.80;;;20.60;70.00;;;;;;10368298;28;20202;-21
2021/07/30 17:59:50;;;;;;;2.30;1.80;;;20.60;70.00;;;;;;10368029;28;20223;-21
2021/07/30 18:05:12;;;;;;;2.77;1.70;;;20.60;70.10;;;;;;10368098;28;20206;-22
2021/07/30 18:10:36;;;;;;;2.07;1.40;;;20.60;70.10;;;;;;10375032;28;20210;-21
2021/07/30 18:15:58;;;;;;;4.40;1.57;;;20.60;70.20;;;;;;10373326;28;20574;-21
2021/07/30 18:21:22;;;;;;;2.63;1.90;;;20.60;70.20;;;;;;10505960;22;20738;-35
2021/07/30 18:26:46;;;;;;;3.00;2.00;;;20.70;70.50;;;;;;10528667;28;20270;-33
2021/07/30 18:32:08;;;;;;;1.90;1.50;;;20.60;70.40;;;;;;10526622;28;20203;-37
2021/07/30 18:37:30;;;;;;;2.90;1.60;;;20.60;70.70;;;;;;10497875;28;20690;-36
2021/07/30 18:42:53;;;;;;;4.70;1.97;;;20.70;70.50;;;;;;10488501;28;20207;-34
2021/07/30 18:48:15;;;;;;;3.33;1.80;;;20.60;70.60;;;;;;10495905;28;20223;-34
2021/07/30 18:53:37;;;;;;;4.40;2.20;;;20.70;70.60;;;;;;10498598;28;20200;-37
2021/07/30 18:59:00;;;;;;;2.03;1.50;;;20.70;70.70;;;;;;10498084;28;20231;-34
2021/07/30 19:04:23;;;;;;;3.60;2.10;;;20.60;70.70;;;;;;10487276;28;20193;-32
2021/07/30 19:09:45;;;;;;;2.67;1.70;;;20.60;70.80;;;;;;10470312;28;20208;-34
2021/07/30 19:15:09;;;;;;;4.67;2.07;;;20.70;70.70;;;;;;10489886;28;20193;-37
2021/07/30 19:20:34;;;;;;;4.93;2.10;;;20.60;70.90;;;;;;10489039;28;20227;-32
2021/07/30 19:25:56;;;;;;;4.57;2.00;;;20.60;70.90;;;;;;10495327;28;20230;-33
2021/07/30 19:31:19;;;;;;;4.20;2.20;;;20.60;71.00;;;;;;10495073;28;20212;-32
2021/07/30 19:36:42;;;;;;;3.30;2.00;;;20.60;71.00;;;;;;10497588;28;20196;-32
2021/07/30 19:42:04;;;;;;;2.17;1.80;;;20.70;71.10;;;;;;10496129;28;20253;-35
2021/07/30 19:47:28;;;;;;;3.80;2.13;;;20.60;71.20;;;;;;10489376;28;20243;-37
2021/07/30 19:52:50;;;;;;;2.40;1.90;;;20.70;71.40;;;;;;10496249;28;20204;-34
2021/07/30 19:58:12;;;;;;;2.63;2.07;;;20.60;71.20;;;;;;10457105;28;20395;-35
2021/07/30 20:03:35;;;;;;;4.40;1.80;;;20.70;71.10;;;;;;10453856;28;20200;-34
2021/07/30 20:08:57;;;;;;;3.23;2.00;;;20.60;71.10;;;;;;10492826;28;20223;-35
2021/07/30 20:14:19;;;;;;;4.63;2.03;;;20.70;70.90;;;;;;10493313;28;20200;-30
2021/07/30 20:19:43;;;;;;;5.27;2.33;;;20.60;71.00;;;;;;10494880;28;20599;-33
2021/07/30 20:25:06;;;;;;;3.27;2.00;;;20.70;71.00;;;;;;10469991;28;20203;-36
2021/07/30 20:30:28;;;;;;;4.37;2.00;;;20.60;70.90;;;;;;10535465;28;20683;-35
2021/07/30 20:35:51;;;;;;;5.27;2.13;;;20.60;70.90;;;;;;10536106;28;20188;-37
2021/07/30 20:41:14;;;;;;;4.50;2.30;;;20.70;71.60;;;;;;10497756;28;20226;-37
2021/07/30 20:46:36;;;;;;;4.47;2.43;;;20.70;73.10;;;;;;10535668;28;20200;-36
2021/07/30 20:51:59;;;;;;;6.23;2.23;;;20.70;73.40;;;;;;10521116;28;20187;-36
2021/07/30 20:57:22;;;;;;;3.47;2.20;;;20.70;73.90;;;;;;10513781;28;20211;-34
2021/07/30 21:02:44;;;;;;;4.77;2.40;;;20.70;74.20;;;;;;10514508;28;20749;-36
2021/07/30 21:08:08;;;;;;;6.17;2.30;;;20.70;75.30;;;;;;10513555;28;20220;-36
2021/07/30 21:13:30;;;;;;;4.77;2.63;;;20.70;76.90;;;;;;10509017;28;20203;-34
2021/07/30 21:18:52;;;;;;;5.70;2.60;;;20.70;77.00;;;;;;10505277;28;20226;-37
2021/07/30 21:24:16;;;;;;;2.60;2.37;;;20.70;77.30;;;;;;10510889;28;20263;-37
2021/07/30 21:29:39;;;;;;;3.47;2.70;;;20.70;76.40;;;;;;10503372;28;20208;-34
2021/07/30 21:35:01;;;;;;;6.13;2.63;;;20.60;76.50;;;;;;10492349;28;20203;-33
2021/07/30 21:40:24;;;;;;;3.60;2.17;;;20.70;76.70;;;;;;10527334;28;20215;-38
2021/07/30 21:45:47;;;;;;;4.83;2.83;;;20.60;75.90;;;;;;10542521;28;20571;-32
2021/07/30 21:51:09;;;;;;;3.83;2.00;;;20.60;74.80;;;;;;10529291;28;20209;-33
2021/07/30 21:56:32;;;;;;;3.87;2.40;;;20.60;74.70;;;;;;10530168;28;20191;-37
2021/07/30 22:01:54;;;;;;;3.17;1.80;;;20.60;74.90;;;;;;10531913;28;20216;-36
2021/07/30 22:07:16;;;;;;;3.57;1.63;;;20.60;74.30;;;;;;10492522;28;20564;-36
2021/07/30 22:12:40;;;;;;;3.83;1.80;;;20.60;74.50;;;;;;10499075;28;20200;-33
2021/07/30 22:18:02;;;;;;;3.27;2.10;;;20.60;74.30;;;;;;10498665;28;20229;-32
2021/07/30 22:23:24;;;;;;;2.47;1.60;;;20.60;75.10;;;;;;10506293;28;20219;-36
2021/07/30 22:28:47;;;;;;;3.53;1.63;;;20.50;75.10;;;;;;10498013;28;20212;-36
2021/07/30 22:34:09;;;;;;;2.77;1.80;;;20.50;75.20;;;;;;10490563;28;20204;-35
2021/07/30 22:39:31;;;;;;;2.30;1.60;;;20.50;75.10;;;;;;10498050;28;20231;-33
2021/07/30 22:44:55;;;;;;;3.67;1.63;;;20.50;75.10;;;;;;10497518;28;20196;-34
2021/07/30 22:50:17;;;;;;;2.00;1.50;;;20.50;75.60;;;;;;10495166;28;20223;-35
2021/07/30 22:55:39;;;;;;;2.63;1.40;;;20.50;75.90;;;;;;10497574;28;20195;-38
2021/07/30 23:01:03;;;;;;;2.30;1.70;;;20.50;76.00;;;;;;10497618;28;20765;-36
2021/07/30 23:06:25;;;;;;;2.80;1.30;;;20.40;76.10;;;;;;10497008;28;20672;-34
2021/07/30 23:11:47;;;;;;;1.70;1.50;;;20.40;76.30;;;;;;10496896;28;20655;-32
2021/07/30 23:17:10;;;;;;;2.20;1.63;;;20.40;76.40;;;;;;10494385;28;20599;-35
2021/07/30 23:22:33;;;;;;;2.03;1.67;;;20.40;76.40;;;;;;10489834;28;20228;-32
2021/07/30 23:27:55;;;;;;;1.90;1.50;;;20.30;76.50;;;;;;10496371;28;20243;-33
2021/07/30 23:33:18;;;;;;;1.30;1.20;;;20.30;77.00;;;;;;10495961;28;20671;-35
2021/07/30 23:38:42;;;;;;;5.23;1.60;;;20.40;76.10;;;;;;10495634;28;20595;-35
2021/07/30 23:44:05;;;;;;;2.43;1.53;;;20.30;76.30;;;;;;10495143;28;20239;-36
2021/07/30 23:49:28;;;;;;;2.83;1.40;;;20.30;76.30;;;;;;10489338;28;20220;-34
2021/07/30 23:54:50;;;;;;;1.43;1.20;;;20.20;76.40;;;;;;10494168;28;20188;-33
